createdAt,value
2023-01-04T00:00:26.061Z,102127.67
2023-01-04T00:03:15.316Z,102125.32
2023-01-04T00:05:44.493Z,102122.69
2023-01-04T00:08:13.583Z,102131.69
2023-01-04T00:10:42.586Z,102136.24
2023-01-04T00:13:11.474Z,102141.79
2023-01-04T00:15:40.576Z,102147.20
2023-01-04T00:18:09.562Z,102151.32
2023-01-04T00:20:38.551Z,102156.88
2023-01-04T00:23:07.435Z,102157.39
2023-01-04T00:25:39.710Z,102158.71
2023-01-04T00:28:08.497Z,102165.77
2023-01-04T00:30:37.492Z,102166.41
2023-01-04T00:33:06.599Z,102169.64
2023-01-04T00:35:45.649Z,102171.16
2023-01-04T00:38:15.326Z,102173.08
2023-01-04T00:40:44.328Z,102177.02
2023-01-04T00:43:13.312Z,102173.17
2023-01-04T00:45:44.352Z,102180.56
2023-01-04T00:48:13.255Z,102178.27
2023-01-04T00:50:45.756Z,102181.59
2023-01-04T00:53:16.109Z,102182.48
2023-01-04T00:55:46.156Z,102178.89
2023-01-04T00:58:14.960Z,102173.64
2023-01-04T01:00:43.845Z,102176.52
2023-01-04T01:03:12.946Z,102179.03
2023-01-04T01:05:42.103Z,102184.98
2023-01-04T01:08:26.286Z,102183.59
2023-01-04T01:10:56.039Z,102186.34
2023-01-04T01:13:24.809Z,102186.02
2023-01-04T01:15:53.590Z,102187.30
2023-01-04T01:18:22.468Z,102188.46
2023-01-04T01:20:51.353Z,102188.95
2023-01-04T01:23:20.127Z,102189.61
2023-01-04T01:25:49.052Z,102193.48
2023-01-04T01:28:18.151Z,102194.73
2023-01-04T01:30:47.057Z,102193.62
2023-01-04T01:33:16.136Z,102190.59
2023-01-04T01:35:45.149Z,102192.54
2023-01-04T01:38:14.053Z,102188.21
2023-01-04T01:40:44.040Z,102189.36
2023-01-04T01:43:21.572Z,102185.42
2023-01-04T01:45:57.518Z,102181.98
2023-01-04T01:48:30.276Z,102181.36
2023-01-04T01:51:03.629Z,102183.41
2023-01-04T01:53:40.171Z,102184.30
2023-01-04T01:56:11.162Z,102173.34
2023-01-04T01:58:45.796Z,102170.08
2023-01-04T02:01:15.024Z,102172.23
2023-01-04T02:03:44.471Z,102172.52
2023-01-04T02:06:21.695Z,102175.95
2023-01-04T02:08:51.003Z,102180.03
2023-01-04T02:11:19.884Z,102185.02
2023-01-04T02:14:08.103Z,102180.77
2023-01-04T02:17:10.732Z,102171.53
2023-01-04T02:20:24.515Z,102167.43
2023-01-04T02:23:27.605Z,102173.97
2023-01-04T02:26:18.360Z,102179.89
2023-01-04T02:29:20.119Z,102182.70
2023-01-04T02:31:54.215Z,102188.13
2023-01-04T02:34:44.129Z,102190.03
2023-01-04T02:37:46.650Z,102196.27
2023-01-04T02:40:50.005Z,102197.00
2023-01-04T02:44:11.538Z,102191.14
2023-01-04T02:46:50.789Z,102195.28
2023-01-04T02:49:38.402Z,102193.24
2023-01-04T02:52:09.219Z,102193.39
2023-01-04T02:54:39.048Z,102198.48
2023-01-04T02:58:00.781Z,102202.45
2023-01-04T03:01:21.157Z,102205.58
2023-01-04T03:05:00.621Z,102206.12
2023-01-04T03:07:40.149Z,102210.52
2023-01-04T03:10:30.966Z,102210.06
2023-01-04T03:13:38.369Z,102205.49
2023-01-04T03:16:20.155Z,102204.42
2023-01-04T03:18:57.621Z,102199.16
2023-01-04T03:21:28.762Z,102199.35
2023-01-04T03:24:19.491Z,102196.86
2023-01-04T03:27:13.780Z,102193.18
2023-01-04T03:30:17.481Z,102198.65
2023-01-04T03:33:11.469Z,102198.86
2023-01-04T03:35:49.991Z,102208.89
2023-01-04T03:38:53.992Z,102212.39
2023-01-04T03:42:03.743Z,102205.84
2023-01-04T03:45:17.203Z,102203.80
2023-01-04T03:48:32.068Z,102207.44
2023-01-04T03:51:23.994Z,102206.30
2023-01-04T03:54:09.773Z,102206.46
2023-01-04T03:56:43.107Z,102210.41
2023-01-04T03:59:13.494Z,102213.38
2023-01-04T04:01:44.528Z,102215.91
2023-01-04T04:04:32.164Z,102218.66
2023-01-04T04:07:19.897Z,102227.88
2023-01-04T04:09:48.916Z,102227.27
2023-01-04T04:12:17.993Z,102231.58
2023-01-04T04:14:47.091Z,102234.78
2023-01-04T04:17:15.973Z,102235.61
2023-01-04T04:19:45.934Z,102241.61
2023-01-04T04:22:15.102Z,102246.40
2023-01-04T04:24:44.192Z,102246.77
2023-01-04T04:27:13.200Z,102244.11
2023-01-04T04:29:42.196Z,102248.89
2023-01-04T04:32:11.379Z,102250.38
2023-01-04T04:34:41.203Z,102251.50
2023-01-04T04:37:10.211Z,102254.87
2023-01-04T04:39:39.290Z,102254.44
2023-01-04T04:42:09.645Z,102262.30
2023-01-04T04:44:38.498Z,102259.15
2023-01-04T04:47:07.514Z,102260.69
2023-01-04T04:49:36.504Z,102263.14
2023-01-04T04:52:05.597Z,102263.20
2023-01-04T04:54:34.695Z,102265.91
2023-01-04T04:57:03.700Z,102267.83
2023-01-04T04:59:33.182Z,102268.95
2023-01-04T05:02:02.335Z,102271.48
2023-01-04T05:04:31.271Z,102272.48
2023-01-04T05:07:00.258Z,102276.77
2023-01-04T05:09:29.184Z,102273.92
2023-01-04T05:12:16.469Z,102270.23
2023-01-04T05:14:45.263Z,102266.55
2023-01-04T05:17:14.265Z,102263.66
2023-01-04T05:19:43.154Z,102270.99
2023-01-04T05:22:12.453Z,102267.25
2023-01-04T05:24:41.447Z,102269.91
2023-01-04T05:27:10.435Z,102273.08
2023-01-04T05:29:57.867Z,102275.02
2023-01-04T05:32:26.887Z,102279.30
2023-01-04T05:34:56.080Z,102276.55
2023-01-04T05:37:26.288Z,102277.23
2023-01-04T05:39:55.273Z,102277.75
2023-01-04T05:42:26.940Z,102279.21
2023-01-04T05:44:58.552Z,102276.43
2023-01-04T05:47:29.268Z,102278.30
2023-01-04T05:49:58.208Z,102283.16
2023-01-04T05:52:27.742Z,102280.14
2023-01-04T05:54:57.145Z,102282.41
2023-01-04T05:57:26.227Z,102285.64
2023-01-04T05:59:55.207Z,102288.34
2023-01-04T06:02:27.962Z,102289.61
2023-01-04T06:04:59.465Z,102288.26
2023-01-04T06:07:29.701Z,102292.79
2023-01-04T06:09:58.673Z,102295.72
2023-01-04T06:12:27.808Z,102297.55
2023-01-04T06:14:56.965Z,102299.24
2023-01-04T06:17:26.015Z,102305.10
2023-01-04T06:19:55.055Z,102306.56
2023-01-04T06:22:24.663Z,102303.80
2023-01-04T06:24:53.758Z,102307.75
2023-01-04T06:27:22.777Z,102307.75
2023-01-04T06:29:51.620Z,102310.33
2023-01-04T06:32:20.330Z,102307.77
2023-01-04T06:34:49.189Z,102308.42
2023-01-04T06:37:18.082Z,102315.25
2023-01-04T06:39:46.894Z,102320.77
2023-01-04T06:42:34.440Z,102320.81
2023-01-04T06:45:04.290Z,102323.83
2023-01-04T06:47:33.114Z,102326.17
2023-01-04T06:50:02.025Z,102330.25
2023-01-04T06:52:31.153Z,102332.71
2023-01-04T06:55:00.186Z,102336.94
2023-01-04T06:57:29.121Z,102343.90
2023-01-04T06:59:58.465Z,102346.82
2023-01-04T07:02:27.307Z,102347.98
2023-01-04T07:04:56.248Z,102351.02
2023-01-04T07:07:25.499Z,102358.95
2023-01-04T07:09:54.387Z,102359.81
2023-01-04T07:12:23.272Z,102364.45
2023-01-04T07:14:52.480Z,102367.48
2023-01-04T07:17:26.409Z,102371.80
2023-01-04T07:19:58.972Z,102369.35
2023-01-04T07:22:27.990Z,102370.50
2023-01-04T07:24:57.591Z,102374.58
2023-01-04T07:27:26.747Z,102371.92
2023-01-04T07:29:55.546Z,102374.48
2023-01-04T07:32:24.450Z,102378.39
2023-01-04T07:34:53.296Z,102380.89
2023-01-04T07:37:22.010Z,102380.57
2023-01-04T07:39:51.136Z,102380.86
2023-01-04T07:42:22.272Z,102379.40
2023-01-04T07:44:51.191Z,102378.66
2023-01-04T07:47:20.081Z,102375.43
2023-01-04T07:49:50.310Z,102383.43
2023-01-04T07:52:19.108Z,102388.65
2023-01-04T07:54:47.889Z,102388.07
2023-01-04T15:31:46.634Z,102077.10
2023-01-04T15:34:15.724Z,102073.89
2023-01-04T15:36:44.834Z,102068.05
2023-01-04T15:39:14.979Z,102067.53
2023-01-04T15:42:02.139Z,102064.41
2023-01-04T15:44:30.996Z,102074.39
2023-01-04T15:47:00.202Z,102076.59
2023-01-04T15:49:33.264Z,102070.73
2023-01-04T15:52:02.236Z,102067.15
2023-01-04T15:54:31.016Z,102073.91
2023-01-04T15:56:59.826Z,102082.58
2023-01-04T15:59:29.111Z,102080.77
2023-01-04T16:01:58.107Z,102072.11
2023-01-04T16:04:27.963Z,102068.44
2023-01-04T16:06:56.803Z,102066.60
2023-01-04T16:09:25.603Z,102069.92
2023-01-04T16:12:12.610Z,102063.80
2023-01-04T16:14:41.524Z,102062.39
2023-01-04T16:17:10.386Z,102063.19
2023-01-04T16:19:39.195Z,102063.98
2023-01-04T16:22:08.061Z,102055.60
2023-01-04T16:25:09.177Z,102053.16
2023-01-04T16:27:31.204Z,102052.80
2023-01-04T16:30:05.400Z,102049.38
2023-01-04T16:32:36.328Z,102048.14
2023-01-04T16:35:05.606Z,102044.02
2023-01-04T16:37:34.535Z,102039.94
2023-01-04T16:40:07.436Z,102042.16
2023-01-04T16:42:38.955Z,102033.81
2023-01-04T16:45:09.587Z,102025.14
2023-01-04T16:47:43.914Z,102019.85
2023-01-04T16:50:14.285Z,102011.81
2023-01-04T16:52:43.223Z,102009.33
2023-01-04T16:55:12.321Z,102008.44
2023-01-04T16:57:41.205Z,102007.71
2023-01-04T17:00:11.633Z,102007.27
2023-01-04T17:02:40.454Z,102003.52
2023-01-04T17:05:09.695Z,102001.85
2023-01-04T17:07:40.170Z,101997.11
2023-01-04T17:10:09.794Z,101994.93
2023-01-04T17:12:48.393Z,101992.58
2023-01-04T17:18:12.588Z,101987.61
2023-01-04T17:20:41.599Z,101981.31
2023-01-04T17:23:11.101Z,101975.52
2023-01-04T17:25:40.069Z,101968.55
2023-01-04T17:28:09.696Z,101964.98
2023-01-04T17:30:44.809Z,101959.52
2023-01-04T17:33:13.600Z,101951.33
2023-01-04T17:35:43.424Z,101946.02
2023-01-04T17:38:12.264Z,101945.21
2023-01-04T17:40:41.320Z,101953.27
2023-01-04T17:43:11.155Z,101950.54
2023-01-04T17:50:42.428Z,101948.67
2023-01-04T17:53:11.157Z,101947.83
2023-01-04T17:55:43.565Z,101933.48
2023-01-04T17:58:13.937Z,101930.58
2023-01-04T18:00:45.348Z,101925.42
2023-01-04T18:03:14.492Z,101923.88
2023-01-04T18:05:52.007Z,101922.36
2023-01-04T18:08:22.495Z,101918.11
2023-01-04T18:11:07.219Z,101915.88
2023-01-04T18:16:33.379Z,101919.11
2023-01-04T18:19:02.367Z,101913.29
2023-01-04T18:21:32.853Z,101911.41
2023-01-04T18:27:21.025Z,101894.11
2023-01-04T18:29:44.134Z,101891.04
2023-01-04T18:32:13.721Z,101887.98
2023-01-04T18:34:42.540Z,101887.10
2023-01-04T18:37:12.117Z,101881.30
2023-01-04T18:39:42.451Z,101886.27
2023-01-04T18:42:12.159Z,101879.05
2023-01-04T18:44:47.788Z,101865.52
2023-01-04T18:47:20.350Z,101861.73
2023-01-04T18:49:50.733Z,101858.77
2023-01-04T18:52:20.630Z,101852.65
2023-01-04T18:54:50.135Z,101844.44
2023-01-04T18:57:19.900Z,101837.40
2023-01-04T18:59:50.684Z,101838.27
2023-01-04T19:02:21.339Z,101833.52
2023-01-04T19:04:51.141Z,101825.84
2023-01-04T19:07:20.045Z,101820.04
2023-01-04T19:09:49.612Z,101824.84
2023-01-04T19:12:18.515Z,101821.95
2023-01-04T19:14:47.352Z,101819.20
2023-01-04T19:17:17.443Z,101815.57
2023-01-04T19:19:46.264Z,101817.73
2023-01-04T19:22:16.844Z,101808.55
2023-01-04T19:24:46.007Z,101804.05
2023-01-04T19:27:14.915Z,101807.97
2023-01-04T19:29:44.669Z,101808.44
2023-01-04T19:32:13.961Z,101804.44
2023-01-04T19:34:42.800Z,101799.89
2023-01-04T19:37:11.533Z,101798.14
2023-01-04T19:39:40.731Z,101788.50
2023-01-04T19:42:09.724Z,101791.50
2023-01-04T19:44:38.472Z,101789.71
2023-01-04T19:47:07.404Z,101784.69
2023-01-04T19:49:37.116Z,101777.29
2023-01-04T19:52:06.729Z,101772.06
2023-01-04T19:54:37.254Z,101762.66
2023-01-04T19:57:06.345Z,101758.94
2023-01-04T19:59:35.436Z,101757.42
2023-01-04T20:02:05.110Z,101755.27
2023-01-04T20:04:34.470Z,101740.47
2023-01-04T20:07:04.027Z,101738.92
2023-01-04T20:09:34.693Z,101729.19
2023-01-04T20:12:04.108Z,101725.36
2023-01-04T20:14:33.595Z,101723.86
2023-01-04T20:17:02.477Z,101711.05
2023-01-04T20:19:31.701Z,101715.59
2023-01-04T20:22:00.793Z,101713.98
2023-01-04T20:24:29.892Z,101711.44
2023-01-04T20:26:58.786Z,101707.73
2023-01-04T20:29:27.975Z,101700.37
2023-01-04T20:31:56.876Z,101695.02
2023-01-04T20:34:25.874Z,101694.76
2023-01-04T20:36:54.759Z,101691.77
2023-01-04T20:39:23.522Z,101698.05
2023-01-04T20:42:10.773Z,101691.99
2023-01-04T20:44:39.665Z,101684.31
2023-01-04T20:47:08.687Z,101670.38
2023-01-04T20:49:37.753Z,101669.70
2023-01-04T20:52:06.755Z,101663.98
2023-01-04T20:54:35.940Z,101659.61
2023-01-04T20:57:05.043Z,101653.13
2023-01-04T20:59:33.832Z,101646.69
2023-01-04T21:02:03.568Z,101642.30
2023-01-04T21:04:32.833Z,101641.77
2023-01-04T21:07:01.622Z,101648.50
2023-01-04T21:09:30.633Z,101646.61
2023-01-04T21:12:04.886Z,101650.40
2023-01-04T21:14:38.544Z,101640.44
2023-01-04T21:17:07.336Z,101646.46
2023-01-04T21:19:36.328Z,101640.20
2023-01-04T21:22:05.255Z,101631.63
2023-01-04T21:24:35.148Z,101623.19
2023-01-04T21:27:04.058Z,101623.75
2023-01-04T21:29:32.917Z,101614.61
2023-01-04T21:32:01.957Z,101610.70
2023-01-04T21:34:31.838Z,101599.86
2023-01-04T21:37:00.824Z,101603.10
2023-01-04T21:39:29.827Z,101591.84
2023-01-04T21:41:58.742Z,101585.98
2023-01-04T21:44:27.592Z,101582.35
2023-01-04T21:46:56.989Z,101583.38
2023-01-04T21:49:26.204Z,101583.11
2023-01-04T21:51:55.206Z,101571.29
2023-01-04T21:54:24.692Z,101560.34
2023-01-04T21:56:53.484Z,101555.50
2023-01-04T21:59:22.384Z,101550.98
2023-01-04T22:01:51.378Z,101537.21
2023-01-04T22:04:20.294Z,101535.13
2023-01-04T22:06:49.173Z,101530.63
2023-01-04T22:09:18.068Z,101533.11
2023-01-04T22:11:47.356Z,101531.84
2023-01-04T22:14:17.623Z,101530.58
2023-01-04T22:16:46.678Z,101519.39
2023-01-04T22:19:15.884Z,101513.86
2023-01-04T22:21:45.176Z,101503.20
2023-01-04T22:24:14.881Z,101501.19
2023-01-04T22:26:44.887Z,101503.04
2023-01-04T22:29:13.801Z,101499.17
2023-01-04T22:31:43.375Z,101484.36
2023-01-04T22:34:12.589Z,101488.51
2023-01-04T22:36:41.784Z,101488.30
2023-01-04T22:39:10.682Z,101483.15
2023-01-04T22:41:41.522Z,101471.13
2023-01-04T22:44:11.103Z,101467.67
2023-01-04T22:46:39.996Z,101462.77
2023-01-04T22:49:09.992Z,101463.50
2023-01-04T22:51:41.075Z,101454.45
2023-01-04T22:54:10.677Z,101442.69
2023-01-04T22:56:39.476Z,101433.63
2023-01-04T22:59:08.471Z,101420.34
2023-01-04T23:01:37.632Z,101421.36
2023-01-04T23:04:06.609Z,101422.56
2023-01-04T23:06:35.681Z,101412.92
2023-01-04T23:09:10.470Z,101403.67
2023-01-04T23:11:41.435Z,101394.96
2023-01-04T23:14:16.133Z,101385.56
2023-01-04T23:16:45.353Z,101382.57
2023-01-04T23:19:15.330Z,101368.93
2023-01-04T23:21:44.165Z,101358.71
2023-01-04T23:24:16.249Z,101357.40
2023-01-04T23:26:47.475Z,101355.21
2023-01-04T23:29:16.465Z,101351.79
2023-01-04T23:31:45.611Z,101347.36
2023-01-04T23:34:15.169Z,101331.30
2023-01-04T23:36:44.267Z,101318.70
2023-01-04T23:39:16.023Z,101307.21
2023-01-04T23:41:45.647Z,101308.88
2023-01-04T23:44:17.227Z,101311.52
2023-01-04T23:46:57.135Z,101312.18
2023-01-04T23:49:29.992Z,101311.44
2023-01-04T23:51:59.854Z,101306.48
2023-01-04T23:54:29.045Z,101293.88
2023-01-04T23:56:58.042Z,101287.06
2023-01-04T23:59:27.667Z,101293.11
